METAR Data
IDs: Format: Raw Decoded Include TAF

Data at: 1330 UTC 21 Apr 2021

METAR for:KEBS (Webster City Muni, IA, US)
Text:KEBS 211315Z AUTO 34014KT 10SM SCT038 OVC048 M00/M09 A3019 RMK AO2
Temperature: 0.0°C ( 32°F)
Dewpoint: -9.0°C ( 16°F) [RH = 51%]
Pressure (altimeter):30.19 inches Hg (1022.4 mb)
Winds:from the NNW (340 degrees) at 16 MPH (14 knots; 7.2 m/s)
Visibility:10 or more sm (16+ km)
Ceiling:4800 feet AGL
Clouds: scattered clouds at 3800 feet AGL, overcast cloud deck at 4800 feet AGL
QC Flag:automated observation with no human augmentation